BXS2421 SAWC-SAWH
Flight info
| Callsign | BXS2421 |
|---|---|
| Flight time | 1h 1m |
| Altitude | 35000 |
| Route | DEVIS2D DEVIS UW52 GAL UW42 GRA DCT DABLI DABLI1Q |
| Aircraft | B738/M-SDE2E3FGHIRWXY/LB1 |
Departure
| Time | 2026-04-20 18:15 |
|---|---|
| Airport | El Calafate - Commander Armando Tola International Airport (SAWC) |
Arrival
| Time | 2026-04-20 19:17 |
|---|---|
| Airport | Ushuaia - Malvinas Argentinas International Airport (SAWH) |
| Time | Latitude | Longitude | Altitude | Speed | Heading |
|---|---|---|---|---|---|
| 2026-04-20 17:43 | -50.28338 | -72.05333 | 648 ft | 0 kts | 25° |
| 2026-04-20 17:44 | -50.28345 | -72.05422 | 648 ft | 0 kts | 302° |
| 2026-04-20 18:03 | -50.28344 | -72.05422 | 648 ft | 1 kts | 302° |
| 2026-04-20 18:04 | -50.28341 | -72.05431 | 650 ft | 1 kts | 302° |
| 2026-04-20 18:09 | -50.28321 | -72.05451 | 650 ft | 4 kts | 353° |
| 2026-04-20 18:09 | -50.28298 | -72.05434 | 648 ft | 4 kts | 27° |
| 2026-04-20 18:09 | -50.28272 | -72.05414 | 648 ft | 5 kts | 25° |
| 2026-04-20 18:09 | -50.28227 | -72.05398 | 648 ft | 9 kts | 3° |
| 2026-04-20 18:10 | -50.28145 | -72.05409 | 648 ft | 12 kts | 357° |
| 2026-04-20 18:10 | -50.28116 | -72.05411 | 648 ft | 0 kts | 357° |
| 2026-04-20 18:10 | -50.28096 | -72.05413 | 648 ft | 6 kts | 357° |
| 2026-04-20 18:10 | -50.28044 | -72.05391 | 648 ft | 10 kts | 45° |
| 2026-04-20 18:11 | -50.28018 | -72.05261 | 648 ft | 15 kts | 77° |
| 2026-04-20 18:11 | -50.28012 | -72.05068 | 647 ft | 20 kts | 88° |
| 2026-04-20 18:11 | -50.27997 | -72.04829 | 648 ft | 24 kts | 83° |
| 2026-04-20 18:11 | -50.27973 | -72.04536 | 645 ft | 30 kts | 82° |
| 2026-04-20 18:12 | -50.27951 | -72.04188 | 643 ft | 34 kts | 84° |
| 2026-04-20 18:12 | -50.27934 | -72.03795 | 639 ft | 38 kts | 96° |
| 2026-04-20 18:12 | -50.27943 | -72.03569 | 641 ft | 10 kts | 42° |
| 2026-04-20 18:12 | -50.27912 | -72.03568 | 640 ft | 4 kts | 320° |
| 2026-04-20 18:13 | -50.27910 | -72.03607 | 640 ft | 4 kts | 260° |
| 2026-04-20 18:13 | -50.27914 | -72.03647 | 641 ft | 4 kts | 260° |
| 2026-04-20 18:13 | -50.27945 | -72.03999 | 640 ft | 71 kts | 264° |
| 2026-04-20 18:13 | -50.28019 | -72.05098 | 647 ft | 99 kts | 264° |
| 2026-04-20 18:14 | -50.28039 | -72.05419 | 648 ft | 0 kts | 266° |
| 2026-04-20 18:15 | -50.28049 | -72.05628 | 647 ft | 59 kts | 265° |
| 2026-04-20 18:15 | -50.28106 | -72.06692 | 654 ft | 136 kts | 266° |
| 2026-04-20 18:15 | -50.28153 | -72.08387 | 1185 ft | 163 kts | 268° |
| 2026-04-20 18:15 | -50.28109 | -72.10251 | 1993 ft | 182 kts | 274° |
| 2026-04-20 18:16 | -50.28259 | -72.12233 | 2761 ft | 196 kts | 261° |
| 2026-04-20 18:16 | -50.28495 | -72.14466 | 3086 ft | 219 kts | 264° |
| 2026-04-20 18:16 | -50.28684 | -72.16957 | 3704 ft | 234 kts | 266° |
| 2026-04-20 18:16 | -50.28839 | -72.19493 | 4773 ft | 233 kts | 268° |
| 2026-04-20 18:17 | -50.28994 | -72.21995 | 5805 ft | 231 kts | 268° |
| 2026-04-20 18:17 | -50.29145 | -72.24478 | 6769 ft | 231 kts | 268° |
| 2026-04-20 18:17 | -50.29293 | -72.26980 | 7591 ft | 234 kts | 268° |
| 2026-04-20 18:17 | -50.29441 | -72.29506 | 8537 ft | 233 kts | 268° |
| 2026-04-20 18:18 | -50.29588 | -72.32042 | 9422 ft | 235 kts | 268° |
| 2026-04-20 18:18 | -50.29735 | -72.34623 | 10188 ft | 241 kts | 268° |
| 2026-04-20 18:18 | -50.29890 | -72.37295 | 10776 ft | 252 kts | 266° |
| 2026-04-20 18:18 | -50.30484 | -72.39957 | 11542 ft | 264 kts | 245° |
| 2026-04-20 18:19 | -50.31675 | -72.42211 | 12360 ft | 278 kts | 227° |
| 2026-04-20 18:19 | -50.33285 | -72.43932 | 13139 ft | 287 kts | 219° |
| 2026-04-20 18:19 | -50.35061 | -72.45547 | 13899 ft | 292 kts | 218° |
| 2026-04-20 18:19 | -50.36982 | -72.46754 | 14576 ft | 310 kts | 198° |
| 2026-04-20 18:20 | -50.39218 | -72.46684 | 15288 ft | 331 kts | 173° |
| 2026-04-20 18:20 | -50.41376 | -72.45134 | 15770 ft | 359 kts | 147° |
| 2026-04-20 18:20 | -50.43085 | -72.42014 | 15924 ft | 391 kts | 119° |
| 2026-04-20 18:20 | -50.44096 | -72.37937 | 16159 ft | 410 kts | 108° |
| 2026-04-20 18:21 | -50.44886 | -72.33558 | 16604 ft | 420 kts | 105° |
| 2026-04-20 18:21 | -50.45670 | -72.29066 | 17302 ft | 423 kts | 106° |
| 2026-04-20 18:21 | -50.46501 | -72.24605 | 18037 ft | 425 kts | 108° |
| 2026-04-20 18:21 | -50.47391 | -72.20163 | 18609 ft | 427 kts | 109° |
| 2026-04-20 18:22 | -50.48338 | -72.15650 | 19198 ft | 431 kts | 109° |
| 2026-04-20 18:22 | -50.49312 | -72.11123 | 19776 ft | 433 kts | 110° |
| 2026-04-20 18:22 | -50.49963 | -72.08111 | 20158 ft | 436 kts | 110° |
| 2026-04-20 18:22 | -50.50945 | -72.03563 | 20706 ft | 439 kts | 110° |
| 2026-04-20 18:23 | -50.51926 | -71.98999 | 21265 ft | 442 kts | 110° |
| 2026-04-20 18:23 | -50.52909 | -71.94403 | 21794 ft | 446 kts | 109° |
| 2026-04-20 18:23 | -50.53898 | -71.89759 | 22312 ft | 449 kts | 109° |
| 2026-04-20 18:23 | -50.54904 | -71.85026 | 22799 ft | 453 kts | 109° |
| 2026-04-20 18:24 | -50.55917 | -71.80252 | 23292 ft | 457 kts | 110° |
| 2026-04-20 18:24 | -50.57250 | -71.75726 | 23660 ft | 457 kts | 127° |
| 2026-04-20 18:24 | -50.59254 | -71.71860 | 24109 ft | 455 kts | 135° |
| 2026-04-20 18:24 | -50.61372 | -71.68149 | 24542 ft | 457 kts | 136° |
| 2026-04-20 18:25 | -50.63520 | -71.64438 | 24931 ft | 461 kts | 136° |
| 2026-04-20 18:25 | -50.65680 | -71.60690 | 25309 ft | 464 kts | 136° |
| 2026-04-20 18:25 | -50.67850 | -71.56881 | 25699 ft | 467 kts | 135° |
| 2026-04-20 18:25 | -50.70023 | -71.53028 | 26101 ft | 470 kts | 135° |
| 2026-04-20 18:26 | -50.72189 | -71.49156 | 26489 ft | 472 kts | 135° |
| 2026-04-20 18:26 | -50.74368 | -71.45241 | 26867 ft | 475 kts | 135° |
| 2026-04-20 18:26 | -50.76542 | -71.41325 | 27247 ft | 477 kts | 135° |
| 2026-04-20 18:26 | -50.78745 | -71.37351 | 27626 ft | 480 kts | 135° |
| 2026-04-20 18:27 | -50.80959 | -71.33352 | 27980 ft | 482 kts | 135° |
| 2026-04-20 18:27 | -50.83189 | -71.29319 | 28329 ft | 485 kts | 135° |
| 2026-04-20 18:27 | -50.85408 | -71.25301 | 28668 ft | 487 kts | 135° |
| 2026-04-20 18:27 | -50.87642 | -71.21250 | 28977 ft | 490 kts | 135° |
| 2026-04-20 18:28 | -50.89884 | -71.17179 | 29325 ft | 492 kts | 135° |
| 2026-04-20 18:28 | -50.92143 | -71.13068 | 29636 ft | 494 kts | 135° |
| 2026-04-20 18:28 | -50.94403 | -71.08950 | 29911 ft | 497 kts | 135° |
| 2026-04-20 18:28 | -50.96740 | -71.04685 | 30150 ft | 499 kts | 135° |
| 2026-04-20 18:29 | -50.99037 | -71.00487 | 30407 ft | 500 kts | 135° |
| 2026-04-20 18:29 | -51.01128 | -70.96020 | 30697 ft | 508 kts | 122° |
| 2026-04-20 18:29 | -51.02455 | -70.90641 | 31048 ft | 512 kts | 103° |
| 2026-04-20 18:29 | -51.02980 | -70.85047 | 31438 ft | 511 kts | 97° |
| 2026-04-20 18:30 | -51.03346 | -70.79442 | 31760 ft | 511 kts | 96° |
| 2026-04-20 18:30 | -51.03700 | -70.73826 | 32011 ft | 513 kts | 96° |
| 2026-04-20 18:30 | -51.04093 | -70.68105 | 32299 ft | 513 kts | 97° |
| 2026-04-20 18:30 | -51.04529 | -70.62314 | 32651 ft | 512 kts | 97° |
| 2026-04-20 18:31 | -51.04964 | -70.56703 | 33012 ft | 510 kts | 97° |
| 2026-04-20 18:31 | -51.05622 | -70.51180 | 33297 ft | 508 kts | 110° |
| 2026-04-20 18:31 | -51.07087 | -70.46124 | 33549 ft | 502 kts | 127° |
| 2026-04-20 18:31 | -51.09152 | -70.41700 | 33874 ft | 496 kts | 133° |
| 2026-04-20 18:32 | -51.11304 | -70.37388 | 34138 ft | 495 kts | 133° |
| 2026-04-20 18:32 | -51.13482 | -70.33066 | 34370 ft | 496 kts | 133° |
| 2026-04-20 18:32 | -51.15624 | -70.28781 | 34620 ft | 495 kts | 133° |
| 2026-04-20 18:32 | -51.17759 | -70.24457 | 34754 ft | 498 kts | 133° |
| 2026-04-20 18:33 | -51.22016 | -70.15702 | 34745 ft | 500 kts | 132° |
| 2026-04-20 18:33 | -51.26221 | -70.06945 | 34732 ft | 493 kts | 132° |
| 2026-04-20 18:34 | -51.30495 | -69.98022 | 34752 ft | 492 kts | 132° |
| 2026-04-20 18:34 | -51.34145 | -69.90390 | 34742 ft | 492 kts | 132° |
| 2026-04-20 18:35 | -51.38365 | -69.81541 | 34748 ft | 492 kts | 132° |
| 2026-04-20 18:35 | -51.42388 | -69.73075 | 34744 ft | 492 kts | 131° |
| 2026-04-20 18:36 | -51.46565 | -69.64252 | 34744 ft | 493 kts | 131° |
| 2026-04-20 18:36 | -51.50704 | -69.55483 | 34754 ft | 493 kts | 131° |
| 2026-04-20 18:37 | -51.54841 | -69.46686 | 34748 ft | 494 kts | 131° |
| 2026-04-20 18:37 | -51.59079 | -69.37921 | 34742 ft | 490 kts | 139° |
| 2026-04-20 18:38 | -51.64259 | -69.31116 | 34755 ft | 476 kts | 155° |
| 2026-04-20 18:38 | -51.70159 | -69.26619 | 34754 ft | 467 kts | 164° |
| 2026-04-20 18:39 | -51.76360 | -69.22424 | 34749 ft | 467 kts | 164° |
| 2026-04-20 18:39 | -51.82378 | -69.18290 | 34752 ft | 468 kts | 164° |
| 2026-04-20 18:40 | -51.88361 | -69.14105 | 34744 ft | 468 kts | 163° |
| 2026-04-20 18:40 | -51.94322 | -69.09900 | 34751 ft | 468 kts | 163° |
| 2026-04-20 18:41 | -52.00398 | -69.05601 | 34752 ft | 467 kts | 164° |
| 2026-04-20 18:41 | -52.06354 | -69.01376 | 34745 ft | 467 kts | 164° |
| 2026-04-20 18:42 | -52.12354 | -68.97110 | 34749 ft | 466 kts | 164° |
| 2026-04-20 18:42 | -52.18297 | -68.92872 | 34752 ft | 466 kts | 164° |
| 2026-04-20 18:43 | -52.24268 | -68.88602 | 34740 ft | 466 kts | 164° |
| 2026-04-20 18:43 | -52.30201 | -68.84347 | 34749 ft | 465 kts | 164° |
| 2026-04-20 18:44 | -52.35868 | -68.80270 | 34744 ft | 465 kts | 164° |
| 2026-04-20 18:44 | -52.41800 | -68.75990 | 34742 ft | 465 kts | 164° |
| 2026-04-20 18:45 | -52.47711 | -68.71713 | 34742 ft | 464 kts | 164° |
| 2026-04-20 18:45 | -52.53858 | -68.67252 | 34738 ft | 464 kts | 164° |
| 2026-04-20 18:46 | -52.59757 | -68.62957 | 34738 ft | 464 kts | 164° |
| 2026-04-20 18:46 | -52.64675 | -68.59367 | 34733 ft | 464 kts | 164° |
| 2026-04-20 18:47 | -52.70769 | -68.54907 | 34731 ft | 464 kts | 164° |
| 2026-04-20 18:47 | -52.76675 | -68.50570 | 34724 ft | 464 kts | 164° |
| 2026-04-20 18:48 | -52.82566 | -68.46234 | 34733 ft | 464 kts | 164° |
| 2026-04-20 18:48 | -52.88472 | -68.41880 | 34721 ft | 464 kts | 164° |
| 2026-04-20 18:49 | -52.94350 | -68.37532 | 34710 ft | 457 kts | 164° |
| 2026-04-20 18:49 | -52.97235 | -68.35377 | 34704 ft | 441 kts | 165° |
| 2026-04-20 18:49 | -52.99959 | -68.33337 | 34700 ft | 428 kts | 165° |
| 2026-04-20 18:50 | -53.02729 | -68.31265 | 34692 ft | 413 kts | 165° |
| 2026-04-20 18:50 | -53.05353 | -68.29304 | 34691 ft | 400 kts | 166° |
| 2026-04-20 18:50 | -53.07879 | -68.27414 | 34698 ft | 387 kts | 166° |
| 2026-04-20 18:50 | -53.10334 | -68.25590 | 34714 ft | 388 kts | 166° |
| 2026-04-20 18:51 | -53.15402 | -68.21864 | 34014 ft | 421 kts | 166° |
| 2026-04-20 18:51 | -53.18133 | -68.19859 | 33071 ft | 434 kts | 165° |
| 2026-04-20 18:51 | -53.20921 | -68.17778 | 32071 ft | 441 kts | 164° |
| 2026-04-20 18:52 | -53.23720 | -68.15665 | 31129 ft | 442 kts | 164° |
| 2026-04-20 18:52 | -53.26508 | -68.13534 | 30217 ft | 443 kts | 162° |
| 2026-04-20 18:52 | -53.29300 | -68.11322 | 29219 ft | 442 kts | 163° |
| 2026-04-20 18:52 | -53.32089 | -68.09193 | 28169 ft | 439 kts | 163° |
| 2026-04-20 18:53 | -53.34861 | -68.07103 | 27159 ft | 437 kts | 163° |
| 2026-04-20 18:53 | -53.37672 | -68.05002 | 26181 ft | 435 kts | 163° |
| 2026-04-20 18:53 | -53.40351 | -68.02993 | 25770 ft | 420 kts | 163° |
| 2026-04-20 18:53 | -53.43014 | -68.00985 | 25349 ft | 407 kts | 163° |
| 2026-04-20 18:54 | -53.45516 | -67.99092 | 24947 ft | 395 kts | 163° |
| 2026-04-20 18:54 | -53.48014 | -67.97195 | 24542 ft | 385 kts | 164° |
| 2026-04-20 18:54 | -53.50436 | -67.95353 | 24138 ft | 375 kts | 164° |
| 2026-04-20 18:54 | -53.52775 | -67.93571 | 23758 ft | 366 kts | 164° |
| 2026-04-20 18:55 | -53.55078 | -67.91814 | 23383 ft | 359 kts | 164° |
| 2026-04-20 18:55 | -53.57336 | -67.90091 | 22948 ft | 353 kts | 164° |
| 2026-04-20 18:55 | -53.59551 | -67.88399 | 22505 ft | 348 kts | 164° |
| 2026-04-20 18:55 | -53.61741 | -67.86724 | 22074 ft | 344 kts | 164° |
| 2026-04-20 18:56 | -53.63914 | -67.85060 | 21645 ft | 340 kts | 164° |
| 2026-04-20 18:56 | -53.66059 | -67.83415 | 21218 ft | 337 kts | 164° |
| 2026-04-20 18:56 | -53.68189 | -67.81778 | 20802 ft | 334 kts | 164° |
| 2026-04-20 18:56 | -53.70294 | -67.80159 | 20401 ft | 332 kts | 164° |
| 2026-04-20 18:57 | -53.72387 | -67.78547 | 19996 ft | 329 kts | 165° |
| 2026-04-20 18:57 | -53.74469 | -67.76941 | 19597 ft | 327 kts | 165° |
| 2026-04-20 18:57 | -53.76535 | -67.75405 | 19202 ft | 321 kts | 169° |
| 2026-04-20 18:57 | -53.78651 | -67.74460 | 18808 ft | 308 kts | 181° |
| 2026-04-20 18:58 | -53.80744 | -67.74138 | 18435 ft | 301 kts | 186° |
| 2026-04-20 18:58 | -53.82816 | -67.73924 | 18253 ft | 293 kts | 186° |
| 2026-04-20 18:58 | -53.84853 | -67.73736 | 18113 ft | 299 kts | 186° |
| 2026-04-20 18:58 | -53.86970 | -67.73548 | 17970 ft | 312 kts | 186° |
| 2026-04-20 18:59 | -53.89215 | -67.73351 | 17725 ft | 334 kts | 185° |
| 2026-04-20 18:59 | -53.91597 | -67.73128 | 17464 ft | 345 kts | 185° |
| 2026-04-20 18:59 | -53.93988 | -67.72878 | 17199 ft | 346 kts | 185° |
| 2026-04-20 18:59 | -53.96383 | -67.72617 | 16928 ft | 345 kts | 184° |
| 2026-04-20 19:00 | -53.98771 | -67.72354 | 16656 ft | 344 kts | 184° |
| 2026-04-20 19:00 | -54.01168 | -67.72090 | 16382 ft | 342 kts | 184° |
| 2026-04-20 19:00 | -54.03527 | -67.71833 | 16122 ft | 341 kts | 184° |
| 2026-04-20 19:00 | -54.05894 | -67.71577 | 15861 ft | 340 kts | 184° |
| 2026-04-20 19:01 | -54.08266 | -67.71322 | 15602 ft | 339 kts | 184° |
| 2026-04-20 19:01 | -54.10610 | -67.71070 | 15353 ft | 339 kts | 184° |
| 2026-04-20 19:01 | -54.12968 | -67.70817 | 15104 ft | 339 kts | 184° |
| 2026-04-20 19:01 | -54.15315 | -67.70565 | 14837 ft | 338 kts | 184° |
| 2026-04-20 19:02 | -54.17674 | -67.70311 | 14599 ft | 337 kts | 184° |
| 2026-04-20 19:02 | -54.20016 | -67.70059 | 14363 ft | 337 kts | 184° |
| 2026-04-20 19:02 | -54.22352 | -67.69806 | 14110 ft | 336 kts | 184° |
| 2026-04-20 19:02 | -54.24712 | -67.69551 | 13867 ft | 335 kts | 184° |
| 2026-04-20 19:03 | -54.27005 | -67.69302 | 13712 ft | 334 kts | 184° |
| 2026-04-20 19:03 | -54.29356 | -67.69048 | 13673 ft | 334 kts | 184° |
| 2026-04-20 19:03 | -54.31661 | -67.68798 | 13657 ft | 332 kts | 184° |
| 2026-04-20 19:03 | -54.33963 | -67.68548 | 13643 ft | 332 kts | 184° |
| 2026-04-20 19:04 | -54.36276 | -67.68298 | 13644 ft | 333 kts | 184° |
| 2026-04-20 19:04 | -54.38594 | -67.68046 | 13642 ft | 333 kts | 184° |
| 2026-04-20 19:04 | -54.40901 | -67.67795 | 13645 ft | 333 kts | 184° |
| 2026-04-20 19:04 | -54.43228 | -67.67541 | 13635 ft | 333 kts | 184° |
| 2026-04-20 19:05 | -54.45536 | -67.67289 | 13637 ft | 333 kts | 184° |
| 2026-04-20 19:05 | -54.47850 | -67.67036 | 13639 ft | 333 kts | 184° |
| 2026-04-20 19:05 | -54.49385 | -67.66868 | 13640 ft | 333 kts | 184° |
| 2026-04-20 19:05 | -54.52505 | -67.66528 | 12951 ft | 342 kts | 183° |
| 2026-04-20 19:06 | -54.54080 | -67.66354 | 12571 ft | 343 kts | 183° |
| 2026-04-20 19:06 | -54.56475 | -67.66085 | 11975 ft | 344 kts | 183° |
| 2026-04-20 19:06 | -54.58890 | -67.65812 | 11390 ft | 345 kts | 182° |
| 2026-04-20 19:06 | -54.61292 | -67.65542 | 10813 ft | 345 kts | 182° |
| 2026-04-20 19:07 | -54.63670 | -67.65273 | 10232 ft | 339 kts | 182° |
| 2026-04-20 19:07 | -54.65945 | -67.65013 | 9687 ft | 330 kts | 182° |
| 2026-04-20 19:07 | -54.68186 | -67.64756 | 9547 ft | 309 kts | 182° |
| 2026-04-20 19:07 | -54.70223 | -67.64517 | 9509 ft | 288 kts | 183° |
| 2026-04-20 19:08 | -54.72169 | -67.64292 | 9324 ft | 274 kts | 183° |
| 2026-04-20 19:08 | -54.75918 | -67.63890 | 8718 ft | 262 kts | 184° |
| 2026-04-20 19:08 | -54.77681 | -67.63699 | 8471 ft | 254 kts | 184° |
| 2026-04-20 19:09 | -54.79375 | -67.64024 | 8201 ft | 231 kts | 209° |
| 2026-04-20 19:09 | -54.80666 | -67.65413 | 7894 ft | 216 kts | 228° |
| 2026-04-20 19:09 | -54.81562 | -67.67429 | 7618 ft | 204 kts | 250° |
| 2026-04-20 19:09 | -54.81909 | -67.69750 | 7245 ft | 198 kts | 265° |
| 2026-04-20 19:10 | -54.82026 | -67.72137 | 6895 ft | 198 kts | 267° |
| 2026-04-20 19:10 | -54.82114 | -67.74472 | 6622 ft | 188 kts | 268° |
| 2026-04-20 19:10 | -54.82181 | -67.76300 | 6399 ft | 179 kts | 267° |
| 2026-04-20 19:10 | -54.82267 | -67.78471 | 6189 ft | 181 kts | 267° |
| 2026-04-20 19:11 | -54.82380 | -67.80613 | 5983 ft | 178 kts | 264° |
| 2026-04-20 19:11 | -54.82542 | -67.82698 | 5704 ft | 167 kts | 266° |
| 2026-04-20 19:11 | -54.82660 | -67.84707 | 5590 ft | 175 kts | 267° |
| 2026-04-20 19:11 | -54.82757 | -67.86861 | 5502 ft | 174 kts | 268° |
| 2026-04-20 19:12 | -54.82842 | -67.89038 | 5279 ft | 187 kts | 268° |
| 2026-04-20 19:12 | -54.82917 | -67.91296 | 4922 ft | 180 kts | 271° |
| 2026-04-20 19:12 | -54.82997 | -67.93374 | 4707 ft | 174 kts | 270° |
| 2026-04-20 19:12 | -54.83076 | -67.95463 | 4428 ft | 174 kts | 269° |
| 2026-04-20 19:13 | -54.83166 | -67.97601 | 4114 ft | 176 kts | 271° |
| 2026-04-20 19:13 | -54.83227 | -67.99658 | 3829 ft | 165 kts | 270° |
| 2026-04-20 19:13 | -54.83293 | -68.01594 | 3574 ft | 157 kts | 271° |
| 2026-04-20 19:13 | -54.83359 | -68.03461 | 3338 ft | 156 kts | 270° |
| 2026-04-20 19:14 | -54.83426 | -68.05375 | 3094 ft | 164 kts | 270° |
| 2026-04-20 19:14 | -54.83498 | -68.07365 | 2866 ft | 164 kts | 270° |
| 2026-04-20 19:14 | -54.83570 | -68.09286 | 2569 ft | 159 kts | 271° |
| 2026-04-20 19:14 | -54.83640 | -68.11229 | 2305 ft | 163 kts | 270° |
| 2026-04-20 19:15 | -54.83714 | -68.13194 | 2034 ft | 163 kts | 270° |
| 2026-04-20 19:15 | -54.83786 | -68.15165 | 1776 ft | 165 kts | 270° |
| 2026-04-20 19:15 | -54.83900 | -68.17107 | 1501 ft | 166 kts | 258° |
| 2026-04-20 19:15 | -54.84161 | -68.19129 | 1248 ft | 179 kts | 258° |
| 2026-04-20 19:16 | -54.84326 | -68.21540 | 953 ft | 208 kts | 269° |
| 2026-04-20 19:16 | -54.84275 | -68.23994 | 327 ft | 200 kts | 275° |
| 2026-04-20 19:16 | -54.84215 | -68.26186 | 170 ft | 171 kts | 270° |
| 2026-04-20 19:16 | -54.84266 | -68.28071 | 100 ft | 143 kts | 269° |
| 2026-04-20 19:17 | -54.84341 | -68.29410 | 87 ft | 58 kts | 263° |
| 2026-04-20 19:17 | -54.84354 | -68.30135 | 79 ft | 92 kts | 268° |
| 2026-04-20 19:17 | -54.84380 | -68.31005 | 83 ft | 35 kts | 264° |
| 2026-04-20 19:17 | -54.84350 | -68.31321 | 84 ft | 11 kts | 335° |
| 2026-04-20 19:18 | -54.84281 | -68.31321 | 86 ft | 10 kts | 5° |
| 2026-04-20 19:18 | -54.84213 | -68.31325 | 81 ft | 9 kts | 353° |
| 2026-04-20 19:18 | -54.84154 | -68.31336 | 85 ft | 8 kts | 355° |
| 2026-04-20 19:18 | -54.84117 | -68.31318 | 82 ft | 0 kts | 32° |
| 2026-04-20 19:19 | -54.84116 | -68.31317 | 82 ft | 0 kts | 32° |
| 2026-04-20 19:19 | -54.84100 | -68.31300 | 85 ft | 9 kts | 32° |
| 2026-04-20 19:19 | -54.84036 | -68.31258 | 82 ft | 7 kts | 24° |
| 2026-04-20 19:20 | -54.84027 | -68.31252 | 83 ft | 0 kts | 20° |